sensor_id;sensor_type;location;lat;lon;timestamp;temperature;humidity
25320;DHT22;13256;49.012;8.610;2023-12-14T00:01:37;7.10;99.90
25320;DHT22;13256;49.012;8.610;2023-12-14T00:04:09;7.10;99.90
25320;DHT22;13256;49.012;8.610;2023-12-14T00:06:40;7.10;99.90
25320;DHT22;13256;49.012;8.610;2023-12-14T00:12:20;7.20;99.90
25320;DHT22;13256;49.012;8.610;2023-12-14T00:26:52;7.40;99.90
25320;DHT22;13256;49.012;8.610;2023-12-14T00:34:32;7.40;99.90
25320;DHT22;13256;49.012;8.610;2023-12-14T00:37:02;7.40;99.90
25320;DHT22;13256;49.012;8.610;2023-12-14T00:42:28;7.40;99.90
25320;DHT22;13256;49.012;8.610;2023-12-14T00:44:54;7.40;99.90
25320;DHT22;13256;49.012;8.610;2023-12-14T00:50:19;7.40;99.90
25320;DHT22;13256;49.012;8.610;2023-12-14T00:55:54;7.40;99.90
25320;DHT22;13256;49.012;8.610;2023-12-14T00:58:21;7.40;99.90
25320;DHT22;13256;49.012;8.610;2023-12-14T01:00:52;7.40;99.90
25320;DHT22;13256;49.012;8.610;2023-12-14T01:03:22;7.40;99.90
25320;DHT22;13256;49.012;8.610;2023-12-14T01:05:51;7.40;99.90
25320;DHT22;13256;49.012;8.610;2023-12-14T01:11:23;7.40;99.90
25320;DHT22;13256;49.012;8.610;2023-12-14T01:13:54;7.30;99.90
25320;DHT22;13256;49.012;8.610;2023-12-14T01:16:23;7.30;99.90
25320;DHT22;13256;49.012;8.610;2023-12-14T01:18:54;7.30;99.90
25320;DHT22;13256;49.012;8.610;2023-12-14T01:21:21;7.30;99.90
25320;DHT22;13256;49.012;8.610;2023-12-14T01:30:18;7.20;99.90
25320;DHT22;13256;49.012;8.610;2023-12-14T01:35:34;7.30;99.90
25320;DHT22;13256;49.012;8.610;2023-12-14T01:41:08;7.30;99.90
25320;DHT22;13256;49.012;8.610;2023-12-14T01:43:36;7.30;99.90
25320;DHT22;13256;49.012;8.610;2023-12-14T01:46:08;7.30;99.90
25320;DHT22;13256;49.012;8.610;2023-12-14T01:48:35;7.30;99.90
25320;DHT22;13256;49.012;8.610;2023-12-14T01:51:04;7.30;99.90
25320;DHT22;13256;49.012;8.610;2023-12-14T01:53:31;7.30;99.90
25320;DHT22;13256;49.012;8.610;2023-12-14T01:55:58;7.30;99.90
25320;DHT22;13256;49.012;8.610;2023-12-14T01:58:26;7.30;99.90
25320;DHT22;13256;49.012;8.610;2023-12-14T02:01:08;7.30;99.90
25320;DHT22;13256;49.012;8.610;2023-12-14T02:03:46;7.30;99.90
25320;DHT22;13256;49.012;8.610;2023-12-14T02:06:15;7.30;99.90
25320;DHT22;13256;49.012;8.610;2023-12-14T02:14:25;7.30;99.90
25320;DHT22;13256;49.012;8.610;2023-12-14T02:19:54;7.40;99.90
25320;DHT22;13256;49.012;8.610;2023-12-14T02:43:27;7.50;99.90
25320;DHT22;13256;49.012;8.610;2023-12-14T02:49:04;7.60;99.90
25320;DHT22;13256;49.012;8.610;2023-12-14T02:54:50;7.50;99.90
25320;DHT22;13256;49.012;8.610;2023-12-14T03:38:50;7.60;99.90
25320;DHT22;13256;49.012;8.610;2023-12-14T03:47:24;7.60;99.90
25320;DHT22;13256;49.012;8.610;2023-12-14T04:20:39;7.70;99.90
25320;DHT22;13256;49.012;8.610;2023-12-14T04:33:15;7.70;99.90
25320;DHT22;13256;49.012;8.610;2023-12-14T04:45:10;7.70;99.90
25320;DHT22;13256;49.012;8.610;2023-12-14T04:59:29;7.60;99.90
25320;DHT22;13256;49.012;8.610;2023-12-14T09:40:39;8.20;99.90
25320;DHT22;13256;49.012;8.610;2023-12-14T10:30:28;8.60;99.90
25320;DHT22;13256;49.012;8.610;2023-12-14T10:33:02;8.60;99.90
25320;DHT22;13256;49.012;8.610;2023-12-14T10:35:30;8.70;99.90
25320;DHT22;13256;49.012;8.610;2023-12-14T10:38:04;8.70;99.90
25320;DHT22;13256;49.012;8.610;2023-12-14T10:40:47;8.80;99.90
25320;DHT22;13256;49.012;8.610;2023-12-14T10:43:16;9.00;99.90
25320;DHT22;13256;49.012;8.610;2023-12-14T10:45:48;9.00;99.90
25320;DHT22;13256;49.012;8.610;2023-12-14T10:48:19;9.00;99.90
25320;DHT22;13256;49.012;8.610;2023-12-14T10:50:55;9.00;99.90
25320;DHT22;13256;49.012;8.610;2023-12-14T10:53:24;9.00;99.90
25320;DHT22;13256;49.012;8.610;2023-12-14T10:55:54;8.90;99.90
25320;DHT22;13256;49.012;8.610;2023-12-14T10:58:25;8.90;99.90
25320;DHT22;13256;49.012;8.610;2023-12-14T11:01:03;8.90;99.90
25320;DHT22;13256;49.012;8.610;2023-12-14T11:03:35;8.90;99.90
25320;DHT22;13256;49.012;8.610;2023-12-14T11:06:03;8.90;99.90
25320;DHT22;13256;49.012;8.610;2023-12-14T11:08:57;8.90;99.90
25320;DHT22;13256;49.012;8.610;2023-12-14T11:11:30;8.90;99.90
25320;DHT22;13256;49.012;8.610;2023-12-14T11:14:11;8.90;99.90
25320;DHT22;13256;49.012;8.610;2023-12-14T11:16:41;8.90;99.90
25320;DHT22;13256;49.012;8.610;2023-12-14T11:19:38;8.90;99.90
25320;DHT22;13256;49.012;8.610;2023-12-14T11:22:24;9.00;99.90
25320;DHT22;13256;49.012;8.610;2023-12-14T11:24:54;9.00;99.90
25320;DHT22;13256;49.012;8.610;2023-12-14T11:27:26;9.00;99.90
25320;DHT22;13256;49.012;8.610;2023-12-14T11:29:58;9.00;99.90
25320;DHT22;13256;49.012;8.610;2023-12-14T11:32:26;9.00;99.90
25320;DHT22;13256;49.012;8.610;2023-12-14T11:34:55;9.00;99.90
25320;DHT22;13256;49.012;8.610;2023-12-14T11:37:23;9.00;99.90
25320;DHT22;13256;49.012;8.610;2023-12-14T11:39:52;9.00;99.90
25320;DHT22;13256;49.012;8.610;2023-12-14T11:42:21;9.00;99.90
25320;DHT22;13256;49.012;8.610;2023-12-14T11:44:53;8.90;99.90
25320;DHT22;13256;49.012;8.610;2023-12-14T11:47:19;8.90;99.90
25320;DHT22;13256;49.012;8.610;2023-12-14T11:49:53;8.90;99.90
25320;DHT22;13256;49.012;8.610;2023-12-14T11:52:21;8.90;99.90
25320;DHT22;13256;49.012;8.610;2023-12-14T11:54:48;8.90;99.90
25320;DHT22;13256;49.012;8.610;2023-12-14T11:57:22;8.90;99.90
25320;DHT22;13256;49.012;8.610;2023-12-14T11:59:59;8.90;99.90
25320;DHT22;13256;49.012;8.610;2023-12-14T12:02:26;8.90;99.90
25320;DHT22;13256;49.012;8.610;2023-12-14T12:04:57;8.90;99.90
25320;DHT22;13256;49.012;8.610;2023-12-14T12:07:31;8.90;99.90
25320;DHT22;13256;49.012;8.610;2023-12-14T12:10:29;9.00;99.90
25320;DHT22;13256;49.012;8.610;2023-12-14T12:13:07;9.00;99.90
25320;DHT22;13256;49.012;8.610;2023-12-14T12:15:35;9.00;99.90
25320;DHT22;13256;49.012;8.610;2023-12-14T12:18:13;9.00;99.90
25320;DHT22;13256;49.012;8.610;2023-12-14T12:20:45;9.00;99.90
25320;DHT22;13256;49.012;8.610;2023-12-14T12:23:21;9.10;99.90
25320;DHT22;13256;49.012;8.610;2023-12-14T12:25:48;9.10;99.90
25320;DHT22;13256;49.012;8.610;2023-12-14T12:28:15;9.10;99.90
25320;DHT22;13256;49.012;8.610;2023-12-14T12:30:44;9.10;99.90
25320;DHT22;13256;49.012;8.610;2023-12-14T12:33:14;9.00;99.90
25320;DHT22;13256;49.012;8.610;2023-12-14T12:35:41;9.00;99.90
25320;DHT22;13256;49.012;8.610;2023-12-14T12:38:33;9.00;99.90
25320;DHT22;13256;49.012;8.610;2023-12-14T12:41:00;9.00;99.90
25320;DHT22;13256;49.012;8.610;2023-12-14T12:43:33;9.00;99.90
25320;DHT22;13256;49.012;8.610;2023-12-14T12:46:09;9.00;99.90
25320;DHT22;13256;49.012;8.610;2023-12-14T12:48:42;9.00;99.90
25320;DHT22;13256;49.012;8.610;2023-12-14T12:51:12;9.00;99.90
25320;DHT22;13256;49.012;8.610;2023-12-14T12:53:41;9.00;99.90
25320;DHT22;13256;49.012;8.610;2023-12-14T12:56:10;9.00;99.90
25320;DHT22;13256;49.012;8.610;2023-12-14T12:58:45;9.00;99.90
25320;DHT22;13256;49.012;8.610;2023-12-14T13:01:50;9.00;99.90
25320;DHT22;13256;49.012;8.610;2023-12-14T13:04:24;9.00;99.90
25320;DHT22;13256;49.012;8.610;2023-12-14T13:06:58;8.90;99.90
25320;DHT22;13256;49.012;8.610;2023-12-14T13:09:30;8.90;99.90
25320;DHT22;13256;49.012;8.610;2023-12-14T13:11:59;8.90;99.90
25320;DHT22;13256;49.012;8.610;2023-12-14T13:14:32;8.90;99.90
25320;DHT22;13256;49.012;8.610;2023-12-14T13:17:26;8.90;99.90
25320;DHT22;13256;49.012;8.610;2023-12-14T13:19:57;8.90;99.90
25320;DHT22;13256;49.012;8.610;2023-12-14T13:22:25;8.90;99.90
25320;DHT22;13256;49.012;8.610;2023-12-14T13:25:00;8.90;99.90
25320;DHT22;13256;49.012;8.610;2023-12-14T13:27:29;9.00;99.90
25320;DHT22;13256;49.012;8.610;2023-12-14T13:29:56;9.00;99.90
25320;DHT22;13256;49.012;8.610;2023-12-14T13:32:24;9.00;99.90
25320;DHT22;13256;49.012;8.610;2023-12-14T13:34:52;9.10;99.90
25320;DHT22;13256;49.012;8.610;2023-12-14T13:37:19;9.10;99.90
25320;DHT22;13256;49.012;8.610;2023-12-14T13:40:15;9.10;99.90
25320;DHT22;13256;49.012;8.610;2023-12-14T13:42:46;9.10;99.90
25320;DHT22;13256;49.012;8.610;2023-12-14T13:45:35;9.20;99.90
25320;DHT22;13256;49.012;8.610;2023-12-14T13:48:03;9.20;99.90
25320;DHT22;13256;49.012;8.610;2023-12-14T13:50:30;9.20;99.90
25320;DHT22;13256;49.012;8.610;2023-12-14T13:52:59;9.10;99.90
25320;DHT22;13256;49.012;8.610;2023-12-14T13:55:54;9.10;99.90
25320;DHT22;13256;49.012;8.610;2023-12-14T13:58:50;9.10;99.90
25320;DHT22;13256;49.012;8.610;2023-12-14T14:01:21;9.10;99.90
25320;DHT22;13256;49.012;8.610;2023-12-14T14:03:48;9.10;99.90
25320;DHT22;13256;49.012;8.610;2023-12-14T14:06:15;9.10;99.90
25320;DHT22;13256;49.012;8.610;2023-12-14T14:08:42;9.10;99.90
25320;DHT22;13256;49.012;8.610;2023-12-14T14:23:41;9.00;99.90
25320;DHT22;13256;49.012;8.610;2023-12-14T14:26:09;8.90;99.90
25320;DHT22;13256;49.012;8.610;2023-12-14T14:28:36;8.90;99.90
25320;DHT22;13256;49.012;8.610;2023-12-14T14:31:06;8.90;99.90
25320;DHT22;13256;49.012;8.610;2023-12-14T14:33:34;8.90;99.90
25320;DHT22;13256;49.012;8.610;2023-12-14T14:36:04;8.90;99.90
25320;DHT22;13256;49.012;8.610;2023-12-14T14:38:35;8.90;99.90
25320;DHT22;13256;49.012;8.610;2023-12-14T14:41:05;8.90;99.90
25320;DHT22;13256;49.012;8.610;2023-12-14T14:43:33;8.80;99.90
25320;DHT22;13256;49.012;8.610;2023-12-14T14:46:01;8.80;99.90
25320;DHT22;13256;49.012;8.610;2023-12-14T14:48:57;8.80;99.90
25320;DHT22;13256;49.012;8.610;2023-12-14T14:51:27;8.80;99.90
25320;DHT22;13256;49.012;8.610;2023-12-14T14:53:57;8.80;99.90
25320;DHT22;13256;49.012;8.610;2023-12-14T14:56:27;8.80;99.90
25320;DHT22;13256;49.012;8.610;2023-12-14T14:58:56;8.80;99.90
25320;DHT22;13256;49.012;8.610;2023-12-14T15:01:23;8.80;99.90
25320;DHT22;13256;49.012;8.610;2023-12-14T15:03:50;8.80;99.90
25320;DHT22;13256;49.012;8.610;2023-12-14T15:06:17;8.80;99.90
25320;DHT22;13256;49.012;8.610;2023-12-14T15:08:46;8.80;99.90
25320;DHT22;13256;49.012;8.610;2023-12-14T15:11:15;8.80;99.90
25320;DHT22;13256;49.012;8.610;2023-12-14T15:13:46;8.80;99.90
25320;DHT22;13256;49.012;8.610;2023-12-14T15:16:14;8.70;99.90
25320;DHT22;13256;49.012;8.610;2023-12-14T15:18:44;8.70;99.90
25320;DHT22;13256;49.012;8.610;2023-12-14T15:21:11;8.70;99.90
25320;DHT22;13256;49.012;8.610;2023-12-14T15:23:43;8.60;99.90
25320;DHT22;13256;49.012;8.610;2023-12-14T15:26:13;8.60;99.90
25320;DHT22;13256;49.012;8.610;2023-12-14T15:28:43;8.60;99.90
25320;DHT22;13256;49.012;8.610;2023-12-14T15:31:09;8.60;99.90
25320;DHT22;13256;49.012;8.610;2023-12-14T15:33:40;8.50;99.90
25320;DHT22;13256;49.012;8.610;2023-12-14T15:36:09;8.50;99.90
25320;DHT22;13256;49.012;8.610;2023-12-14T15:38:39;8.50;99.90
25320;DHT22;13256;49.012;8.610;2023-12-14T15:41:13;8.50;99.90
25320;DHT22;13256;49.012;8.610;2023-12-14T15:43:47;8.50;99.90
25320;DHT22;13256;49.012;8.610;2023-12-14T15:46:16;8.50;99.90
25320;DHT22;13256;49.012;8.610;2023-12-14T15:48:44;8.30;99.90
25320;DHT22;13256;49.012;8.610;2023-12-14T15:51:11;8.20;99.90
25320;DHT22;13256;49.012;8.610;2023-12-14T15:53:41;8.20;99.90
25320;DHT22;13256;49.012;8.610;2023-12-14T15:56:08;8.20;99.90
25320;DHT22;13256;49.012;8.610;2023-12-14T15:58:35;8.10;99.90
25320;DHT22;13256;49.012;8.610;2023-12-14T16:01:08;8.10;99.90
25320;DHT22;13256;49.012;8.610;2023-12-14T16:03:37;8.00;99.90
25320;DHT22;13256;49.012;8.610;2023-12-14T16:06:05;8.00;99.90
25320;DHT22;13256;49.012;8.610;2023-12-14T16:08:32;8.00;99.90
25320;DHT22;13256;49.012;8.610;2023-12-14T16:11:00;8.00;99.90
25320;DHT22;13256;49.012;8.610;2023-12-14T16:13:30;8.00;99.90
25320;DHT22;13256;49.012;8.610;2023-12-14T16:15:58;8.00;99.90
25320;DHT22;13256;49.012;8.610;2023-12-14T16:18:25;8.00;99.90
25320;DHT22;13256;49.012;8.610;2023-12-14T16:20:52;8.00;99.90
25320;DHT22;13256;49.012;8.610;2023-12-14T16:23:33;8.00;99.90
25320;DHT22;13256;49.012;8.610;2023-12-14T16:29:28;7.90;99.90
25320;DHT22;13256;49.012;8.610;2023-12-14T16:31:57;8.00;99.90
25320;DHT22;13256;49.012;8.610;2023-12-14T16:34:28;8.00;99.90
25320;DHT22;13256;49.012;8.610;2023-12-14T16:36:58;8.00;99.90
25320;DHT22;13256;49.012;8.610;2023-12-14T16:39:53;8.00;99.90
25320;DHT22;13256;49.012;8.610;2023-12-14T16:42:23;8.00;99.90
25320;DHT22;13256;49.012;8.610;2023-12-14T16:45:20;8.00;99.90
25320;DHT22;13256;49.012;8.610;2023-12-14T16:47:51;8.00;99.90
25320;DHT22;13256;49.012;8.610;2023-12-14T16:50:21;7.90;99.90
25320;DHT22;13256;49.012;8.610;2023-12-14T16:53:19;8.00;99.90
25320;DHT22;13256;49.012;8.610;2023-12-14T16:55:55;7.90;99.90
25320;DHT22;13256;49.012;8.610;2023-12-14T16:58:26;7.90;99.90
25320;DHT22;13256;49.012;8.610;2023-12-14T17:00:56;7.90;99.90
25320;DHT22;13256;49.012;8.610;2023-12-14T17:03:24;7.80;99.90
25320;DHT22;13256;49.012;8.610;2023-12-14T17:05:54;7.80;99.90
25320;DHT22;13256;49.012;8.610;2023-12-14T17:08:21;7.80;99.90
25320;DHT22;13256;49.012;8.610;2023-12-14T17:10:49;7.80;99.90
25320;DHT22;13256;49.012;8.610;2023-12-14T17:13:20;7.70;99.90
25320;DHT22;13256;49.012;8.610;2023-12-14T17:15:49;7.60;99.90
25320;DHT22;13256;49.012;8.610;2023-12-14T17:18:44;7.60;99.90
25320;DHT22;13256;49.012;8.610;2023-12-14T17:23:48;7.60;99.90
25320;DHT22;13256;49.012;8.610;2023-12-14T17:26:16;7.50;99.90
25320;DHT22;13256;49.012;8.610;2023-12-14T17:29:10;7.60;99.90
25320;DHT22;13256;49.012;8.610;2023-12-14T17:31:43;7.50;99.90
25320;DHT22;13256;49.012;8.610;2023-12-14T17:34:23;7.50;99.90
25320;DHT22;13256;49.012;8.610;2023-12-14T17:36:54;7.50;99.90
25320;DHT22;13256;49.012;8.610;2023-12-14T17:39:21;7.50;99.90
25320;DHT22;13256;49.012;8.610;2023-12-14T17:41:51;7.50;99.90
25320;DHT22;13256;49.012;8.610;2023-12-14T17:44:26;7.50;99.90
25320;DHT22;13256;49.012;8.610;2023-12-14T17:46:56;7.50;99.90
25320;DHT22;13256;49.012;8.610;2023-12-14T17:49:22;7.50;99.90
25320;DHT22;13256;49.012;8.610;2023-12-14T17:51:53;7.50;99.90
25320;DHT22;13256;49.012;8.610;2023-12-14T17:54:23;7.50;99.90
25320;DHT22;13256;49.012;8.610;2023-12-14T17:56:58;7.50;99.90
25320;DHT22;13256;49.012;8.610;2023-12-14T17:59:38;7.50;99.90
25320;DHT22;13256;49.012;8.610;2023-12-14T18:02:09;7.50;99.90
25320;DHT22;13256;49.012;8.610;2023-12-14T18:04:44;7.40;99.90
25320;DHT22;13256;49.012;8.610;2023-12-14T18:07:11;7.50;99.90
25320;DHT22;13256;49.012;8.610;2023-12-14T18:09:40;7.50;99.90
25320;DHT22;13256;49.012;8.610;2023-12-14T18:12:07;7.50;99.90
25320;DHT22;13256;49.012;8.610;2023-12-14T18:14:37;7.60;99.90
25320;DHT22;13256;49.012;8.610;2023-12-14T18:17:38;7.50;99.90
25320;DHT22;13256;49.012;8.610;2023-12-14T18:20:08;7.50;99.90
25320;DHT22;13256;49.012;8.610;2023-12-14T18:22:36;7.50;99.90
25320;DHT22;13256;49.012;8.610;2023-12-14T18:25:05;7.50;99.90
25320;DHT22;13256;49.012;8.610;2023-12-14T18:27:34;7.50;99.90
25320;DHT22;13256;49.012;8.610;2023-12-14T18:30:03;7.50;99.90
25320;DHT22;13256;49.012;8.610;2023-12-14T18:32:39;7.40;99.90
25320;DHT22;13256;49.012;8.610;2023-12-14T18:35:07;7.40;99.90
25320;DHT22;13256;49.012;8.610;2023-12-14T18:37:36;7.30;99.90
25320;DHT22;13256;49.012;8.610;2023-12-14T18:40:13;7.30;99.90
25320;DHT22;13256;49.012;8.610;2023-12-14T18:42:45;7.20;99.90
25320;DHT22;13256;49.012;8.610;2023-12-14T18:45:16;7.20;99.90
25320;DHT22;13256;49.012;8.610;2023-12-14T18:47:44;7.20;99.90
25320;DHT22;13256;49.012;8.610;2023-12-14T18:50:11;7.10;99.90
25320;DHT22;13256;49.012;8.610;2023-12-14T18:52:40;7.10;99.90
25320;DHT22;13256;49.012;8.610;2023-12-14T18:55:09;7.10;99.90
25320;DHT22;13256;49.012;8.610;2023-12-14T18:57:39;7.10;99.90
25320;DHT22;13256;49.012;8.610;2023-12-14T19:00:14;7.00;99.90
25320;DHT22;13256;49.012;8.610;2023-12-14T19:02:41;7.00;99.90
25320;DHT22;13256;49.012;8.610;2023-12-14T19:05:08;7.00;99.90
25320;DHT22;13256;49.012;8.610;2023-12-14T19:08:06;7.00;99.90
25320;DHT22;13256;49.012;8.610;2023-12-14T19:10:33;7.00;99.90
25320;DHT22;13256;49.012;8.610;2023-12-14T19:13:26;7.00;99.90
25320;DHT22;13256;49.012;8.610;2023-12-14T19:15:55;7.00;99.90
25320;DHT22;13256;49.012;8.610;2023-12-14T19:18:25;6.90;99.90
25320;DHT22;13256;49.012;8.610;2023-12-14T19:21:02;7.00;99.90
25320;DHT22;13256;49.012;8.610;2023-12-14T19:24:04;6.90;99.90
25320;DHT22;13256;49.012;8.610;2023-12-14T19:26:33;7.00;99.90
25320;DHT22;13256;49.012;8.610;2023-12-14T19:29:29;6.90;99.90
25320;DHT22;13256;49.012;8.610;2023-12-14T19:32:00;6.80;99.90
25320;DHT22;13256;49.012;8.610;2023-12-14T19:34:32;6.80;99.90
25320;DHT22;13256;49.012;8.610;2023-12-14T19:37:03;6.80;99.90
25320;DHT22;13256;49.012;8.610;2023-12-14T19:39:30;6.80;99.90
25320;DHT22;13256;49.012;8.610;2023-12-14T19:42:02;6.80;99.90
25320;DHT22;13256;49.012;8.610;2023-12-14T19:44:35;6.80;99.90
25320;DHT22;13256;49.012;8.610;2023-12-14T19:47:04;6.80;99.90
25320;DHT22;13256;49.012;8.610;2023-12-14T19:49:35;6.80;99.90
25320;DHT22;13256;49.012;8.610;2023-12-14T19:52:06;6.80;99.90
25320;DHT22;13256;49.012;8.610;2023-12-14T19:54:37;6.80;99.90
25320;DHT22;13256;49.012;8.610;2023-12-14T19:57:16;6.80;99.90
25320;DHT22;13256;49.012;8.610;2023-12-14T19:59:50;6.70;99.90
25320;DHT22;13256;49.012;8.610;2023-12-14T20:02:22;6.70;99.90
25320;DHT22;13256;49.012;8.610;2023-12-14T20:04:55;6.70;99.90
25320;DHT22;13256;49.012;8.610;2023-12-14T20:07:29;6.70;99.90
25320;DHT22;13256;49.012;8.610;2023-12-14T20:10:05;6.70;99.90
25320;DHT22;13256;49.012;8.610;2023-12-14T20:12:42;6.70;99.90
25320;DHT22;13256;49.012;8.610;2023-12-14T20:15:12;6.60;99.90
25320;DHT22;13256;49.012;8.610;2023-12-14T20:17:52;6.60;99.90
25320;DHT22;13256;49.012;8.610;2023-12-14T20:20:27;6.60;99.90
25320;DHT22;13256;49.012;8.610;2023-12-14T20:23:02;6.60;99.90
25320;DHT22;13256;49.012;8.610;2023-12-14T20:25:33;6.50;99.90
25320;DHT22;13256;49.012;8.610;2023-12-14T20:28:05;6.50;99.90
25320;DHT22;13256;49.012;8.610;2023-12-14T20:30:46;6.50;99.90
25320;DHT22;13256;49.012;8.610;2023-12-14T20:33:22;6.50;99.90
25320;DHT22;13256;49.012;8.610;2023-12-14T20:35:58;6.50;99.90
25320;DHT22;13256;49.012;8.610;2023-12-14T20:38:57;6.50;99.90
25320;DHT22;13256;49.012;8.610;2023-12-14T20:41:45;6.50;99.90
25320;DHT22;13256;49.012;8.610;2023-12-14T20:44:14;6.50;99.90
25320;DHT22;13256;49.012;8.610;2023-12-14T20:46:43;6.50;99.90
25320;DHT22;13256;49.012;8.610;2023-12-14T20:49:13;6.50;99.90
25320;DHT22;13256;49.012;8.610;2023-12-14T20:51:40;6.50;99.90
25320;DHT22;13256;49.012;8.610;2023-12-14T20:54:12;6.40;99.90
25320;DHT22;13256;49.012;8.610;2023-12-14T20:56:39;6.40;99.90
25320;DHT22;13256;49.012;8.610;2023-12-14T20:59:08;6.40;99.90
25320;DHT22;13256;49.012;8.610;2023-12-14T21:01:40;6.40;99.90
25320;DHT22;13256;49.012;8.610;2023-12-14T21:04:08;6.40;99.90
25320;DHT22;13256;49.012;8.610;2023-12-14T21:06:41;6.40;99.90
25320;DHT22;13256;49.012;8.610;2023-12-14T21:09:11;6.40;99.90
25320;DHT22;13256;49.012;8.610;2023-12-14T21:11:46;6.40;99.90
25320;DHT22;13256;49.012;8.610;2023-12-14T21:14:33;6.40;99.90
25320;DHT22;13256;49.012;8.610;2023-12-14T21:17:03;6.40;99.90
25320;DHT22;13256;49.012;8.610;2023-12-14T21:19:33;6.40;99.90
25320;DHT22;13256;49.012;8.610;2023-12-14T21:22:07;6.40;99.90
25320;DHT22;13256;49.012;8.610;2023-12-14T21:24:39;6.30;99.90
25320;DHT22;13256;49.012;8.610;2023-12-14T21:27:08;6.30;99.90
25320;DHT22;13256;49.012;8.610;2023-12-14T21:30:00;6.30;99.90
25320;DHT22;13256;49.012;8.610;2023-12-14T21:32:27;6.30;99.90
25320;DHT22;13256;49.012;8.610;2023-12-14T21:35:24;6.30;99.90
25320;DHT22;13256;49.012;8.610;2023-12-14T21:37:51;6.30;99.90
25320;DHT22;13256;49.012;8.610;2023-12-14T21:40:18;6.30;99.90
25320;DHT22;13256;49.012;8.610;2023-12-14T21:42:53;6.30;99.90
25320;DHT22;13256;49.012;8.610;2023-12-14T21:45:22;6.30;99.90
25320;DHT22;13256;49.012;8.610;2023-12-14T21:47:51;6.30;99.90
25320;DHT22;13256;49.012;8.610;2023-12-14T21:50:45;6.30;99.90
25320;DHT22;13256;49.012;8.610;2023-12-14T21:53:17;6.30;99.90
25320;DHT22;13256;49.012;8.610;2023-12-14T21:55:48;6.30;99.90
25320;DHT22;13256;49.012;8.610;2023-12-14T21:58:26;6.30;99.90
25320;DHT22;13256;49.012;8.610;2023-12-14T22:00:54;6.30;99.90
25320;DHT22;13256;49.012;8.610;2023-12-14T22:03:20;6.30;99.90
25320;DHT22;13256;49.012;8.610;2023-12-14T22:05:48;6.20;99.90
25320;DHT22;13256;49.012;8.610;2023-12-14T22:08:17;6.20;99.90
25320;DHT22;13256;49.012;8.610;2023-12-14T22:10:44;6.20;99.90
25320;DHT22;13256;49.012;8.610;2023-12-14T22:13:20;6.20;99.90
25320;DHT22;13256;49.012;8.610;2023-12-14T22:15:50;6.20;99.90
25320;DHT22;13256;49.012;8.610;2023-12-14T22:18:20;6.20;99.90
25320;DHT22;13256;49.012;8.610;2023-12-14T22:20:58;6.20;99.90
25320;DHT22;13256;49.012;8.610;2023-12-14T22:23:25;6.30;99.90
25320;DHT22;13256;49.012;8.610;2023-12-14T22:25:57;6.30;99.90
25320;DHT22;13256;49.012;8.610;2023-12-14T22:28:24;6.40;99.90
25320;DHT22;13256;49.012;8.610;2023-12-14T22:30:54;6.40;99.90
25320;DHT22;13256;49.012;8.610;2023-12-14T22:33:25;6.40;99.90
25320;DHT22;13256;49.012;8.610;2023-12-14T22:35:53;6.40;99.90
25320;DHT22;13256;49.012;8.610;2023-12-14T22:38:32;6.40;99.90
25320;DHT22;13256;49.012;8.610;2023-12-14T22:41:02;6.40;99.90
25320;DHT22;13256;49.012;8.610;2023-12-14T22:43:31;6.40;99.90
25320;DHT22;13256;49.012;8.610;2023-12-14T22:46:08;6.40;99.90
25320;DHT22;13256;49.012;8.610;2023-12-14T22:49:08;6.40;99.90
25320;DHT22;13256;49.012;8.610;2023-12-14T22:51:39;6.40;99.90
25320;DHT22;13256;49.012;8.610;2023-12-14T22:54:10;6.40;99.90
25320;DHT22;13256;49.012;8.610;2023-12-14T22:56:39;6.30;99.90
25320;DHT22;13256;49.012;8.610;2023-12-14T22:59:09;6.30;99.90
25320;DHT22;13256;49.012;8.610;2023-12-14T23:01:39;6.30;99.90
25320;DHT22;13256;49.012;8.610;2023-12-14T23:04:10;6.30;99.90
25320;DHT22;13256;49.012;8.610;2023-12-14T23:06:37;6.30;99.90
25320;DHT22;13256;49.012;8.610;2023-12-14T23:09:06;6.30;99.90
25320;DHT22;13256;49.012;8.610;2023-12-14T23:15:03;6.30;99.90
25320;DHT22;13256;49.012;8.610;2023-12-14T23:17:32;6.30;99.90
25320;DHT22;13256;49.012;8.610;2023-12-14T23:20:07;6.30;99.90
25320;DHT22;13256;49.012;8.610;2023-12-14T23:22:37;6.20;99.90
25320;DHT22;13256;49.012;8.610;2023-12-14T23:25:05;6.30;99.90
25320;DHT22;13256;49.012;8.610;2023-12-14T23:27:37;6.20;99.90
25320;DHT22;13256;49.012;8.610;2023-12-14T23:30:10;6.30;99.90
25320;DHT22;13256;49.012;8.610;2023-12-14T23:32:38;6.20;99.90
25320;DHT22;13256;49.012;8.610;2023-12-14T23:35:14;6.20;99.90
25320;DHT22;13256;49.012;8.610;2023-12-14T23:37:43;6.30;99.90
25320;DHT22;13256;49.012;8.610;2023-12-14T23:40:10;6.30;99.90
25320;DHT22;13256;49.012;8.610;2023-12-14T23:42:41;6.30;99.90
25320;DHT22;13256;49.012;8.610;2023-12-14T23:45:08;6.30;99.90
25320;DHT22;13256;49.012;8.610;2023-12-14T23:47:35;6.30;99.90
25320;DHT22;13256;49.012;8.610;2023-12-14T23:50:05;6.30;99.90
25320;DHT22;13256;49.012;8.610;2023-12-14T23:52:33;6.30;99.90
